createdAt,value
2017-11-20T00:00:04.408Z,46
2017-11-20T00:15:05.138Z,46
2017-11-20T00:30:05.920Z,47
2017-11-20T00:45:05.885Z,47
2017-11-20T01:00:05.266Z,47
2017-11-20T01:15:08.448Z,46
2017-11-20T01:30:05.402Z,46
2017-11-20T01:45:07.921Z,47
2017-11-20T02:00:05.050Z,47
2017-11-20T02:15:05.782Z,47
2017-11-20T02:30:04.566Z,47
2017-11-20T02:45:06.376Z,46
2017-11-20T03:00:07.988Z,47
2017-11-20T03:15:05.146Z,46
2017-11-20T03:30:05.192Z,46
2017-11-20T03:45:07.981Z,46
2017-11-20T04:00:05.125Z,47
2017-11-20T04:15:04.478Z,47
2017-11-20T04:30:20.652Z,48
2017-11-20T04:45:05.402Z,49
2017-11-20T05:00:04.871Z,51
2017-11-20T05:15:05.879Z,50
2017-11-20T05:30:04.737Z,51
2017-11-20T05:45:11.902Z,57
2017-11-20T06:00:04.789Z,52
2017-11-20T06:15:04.722Z,55
2017-11-20T06:30:05.135Z,54
2017-11-20T06:45:08.306Z,55
2017-11-20T07:00:05.630Z,62
2017-11-20T07:15:06.350Z,60
2017-11-20T07:30:04.476Z,58
2017-11-20T07:45:04.883Z,55
2017-11-20T08:00:05.857Z,58
2017-11-20T08:15:05.252Z,59
2017-11-20T08:30:04.836Z,57
2017-11-20T08:45:04.829Z,53
2017-11-20T09:00:04.710Z,54
2017-11-20T09:15:05.116Z,54
2017-11-20T09:30:04.748Z,55
2017-11-20T09:45:14.906Z,52
2017-11-20T10:00:07.584Z,50
2017-11-20T10:15:06.198Z,49
2017-11-20T10:30:08.048Z,50
2017-11-20T10:45:04.545Z,49
2017-11-20T11:00:05.534Z,53
2017-11-20T11:16:12.491Z,48
2017-11-20T11:30:06.428Z,48
2017-11-20T11:45:05.088Z,49
2017-11-20T12:00:08.325Z,49
2017-11-20T12:15:04.785Z,49
2017-11-20T12:30:04.495Z,49
2017-11-20T12:45:05.761Z,49
2017-11-20T13:00:05.595Z,48
2017-11-20T13:15:05.344Z,49
2017-11-20T13:30:05.963Z,49
2017-11-20T13:45:05.989Z,49
2017-11-20T14:00:08.080Z,48
2017-11-20T14:15:04.546Z,48
2017-11-20T14:30:05.510Z,50
2017-11-20T14:45:05.317Z,54
2017-11-20T15:00:05.081Z,50
2017-11-20T15:15:20.136Z,51
2017-11-20T15:30:04.998Z,55
2017-11-20T15:45:08.031Z,56
2017-11-20T16:00:05.984Z,57
2017-11-20T16:15:04.400Z,55
2017-11-20T16:30:08.004Z,58
2017-11-20T16:45:05.130Z,60
2017-11-20T17:00:04.725Z,56
2017-11-20T17:15:05.362Z,57
2017-11-20T17:30:08.214Z,55
2017-11-20T17:45:04.948Z,55
2017-11-20T18:00:11.766Z,55
2017-11-20T18:15:05.264Z,52
2017-11-20T18:30:05.284Z,54
2017-11-20T18:45:04.690Z,59
2017-11-20T19:00:06.191Z,58
2017-11-20T19:15:04.656Z,57
2017-11-20T19:31:09.942Z,56
2017-11-20T19:45:07.572Z,59
2017-11-20T20:00:06.078Z,54
2017-11-20T20:15:05.507Z,52
2017-11-20T20:30:04.600Z,52
2017-11-20T20:45:05.586Z,54
2017-11-20T21:00:04.522Z,55
2017-11-20T21:15:05.987Z,52
2017-11-20T21:30:05.662Z,61
2017-11-20T21:45:05.793Z,52
2017-11-20T22:00:06.539Z,51
2017-11-20T22:15:05.130Z,49
2017-11-20T22:30:06.002Z,52
2017-11-20T22:45:05.016Z,51
2017-11-20T23:00:11.763Z,50
2017-11-20T23:15:05.461Z,49
2017-11-20T23:30:05.289Z,48
2017-11-20T23:45:05.230Z,49
